Airport ICAO


07:25 UTC

12°C

Broken clouds


An affordable passengers' Moving Map for your aircraft. Made for the iPad and the iPhone
More information here

LFAT Paris Plage


Le Tourquet FRANCE   VFR


METAR LFAT 200700Z AUTO 14003KT 9999 SCT026 BKN066 12/12 Q1021 TEMPO BKN013 BECMG 22010KT 0h25min

TAF LFAT 200500Z 2006/2015 VRB02KT 9999 BKN030 BECMG 2007/2009 22010KT PROB30 TEMPO 2007/2012 -RA BKN013 2h25min





NOTAMS

OPEN